createdAt,value
2016-09-16T00:00:41.537Z,0
2016-09-16T00:01:52.544Z,0
2016-09-16T00:03:03.747Z,0
2016-09-16T00:04:14.751Z,0
2016-09-16T00:05:25.953Z,0
2016-09-16T00:06:36.962Z,0
2016-09-16T00:07:48.162Z,0
2016-09-16T00:08:59.163Z,0
2016-09-16T00:10:10.172Z,0
2016-09-16T00:11:21.237Z,0
2016-09-16T00:12:32.239Z,0
2016-09-16T00:13:43.443Z,0
2016-09-16T00:14:54.459Z,0
2016-09-16T00:16:05.520Z,0
2016-09-16T00:17:16.519Z,0
2016-09-16T00:18:27.526Z,0
2016-09-16T00:19:38.769Z,0
2016-09-16T00:20:49.770Z,0
2016-09-16T00:22:00.774Z,0
2016-09-16T00:23:11.792Z,0
2016-09-16T00:24:22.809Z,0
2016-09-16T00:25:33.807Z,0
2016-09-16T00:26:44.814Z,0
2016-09-16T00:27:56.018Z,0
2016-09-16T00:29:07.022Z,0
2016-09-16T00:30:18.045Z,0
2016-09-16T00:31:29.052Z,0
2016-09-16T00:32:40.248Z,0
2016-09-16T00:33:51.259Z,0
2016-09-16T00:35:02.275Z,0
2016-09-16T00:36:13.282Z,0
2016-09-16T00:37:24.285Z,0
2016-09-16T00:38:35.286Z,0
2016-09-16T00:39:46.298Z,0
2016-09-16T00:40:57.308Z,0
2016-09-16T00:42:08.313Z,0
2016-09-16T00:43:19.336Z,0
2016-09-16T00:44:30.340Z,0
2016-09-16T00:45:41.755Z,0
2016-09-16T00:46:52.763Z,0
2016-09-16T00:48:03.761Z,0
2016-09-16T00:49:14.759Z,0
2016-09-16T00:50:25.769Z,0
2016-09-16T00:51:36.784Z,0
2016-09-16T00:52:47.786Z,0
2016-09-16T00:53:58.989Z,0
2016-09-16T00:55:10.197Z,0
2016-09-16T00:56:21.205Z,0
2016-09-16T00:57:32.208Z,0
2016-09-16T00:58:43.215Z,0
2016-09-16T00:59:54.256Z,0
2016-09-16T01:01:05.259Z,0
2016-09-16T01:02:16.263Z,0
2016-09-16T01:03:27.268Z,0
2016-09-16T01:04:38.270Z,0
2016-09-16T01:05:49.273Z,0
2016-09-16T01:07:00.273Z,0
2016-09-16T01:08:11.484Z,0
2016-09-16T01:09:22.489Z,0
2016-09-16T01:10:33.488Z,0
2016-09-16T01:11:44.539Z,0
2016-09-16T01:12:55.753Z,0
2016-09-16T01:14:06.755Z,0
2016-09-16T01:15:17.760Z,0
2016-09-16T01:16:28.973Z,0
2016-09-16T01:17:39.988Z,0
2016-09-16T01:18:50.990Z,0
2016-09-16T01:20:02.191Z,0
2016-09-16T01:21:13.198Z,0
2016-09-16T01:22:24.201Z,0
2016-09-16T01:23:35.223Z,0
2016-09-16T01:24:46.225Z,0
2016-09-16T01:25:57.429Z,0
2016-09-16T01:27:08.445Z,0
2016-09-16T01:28:19.452Z,0
2016-09-16T01:29:30.448Z,0
2016-09-16T01:30:41.452Z,0
2016-09-16T01:31:52.672Z,0
2016-09-16T01:33:03.679Z,0
2016-09-16T01:34:14.696Z,0
2016-09-16T01:35:25.705Z,0
2016-09-16T01:36:36.715Z,0
2016-09-16T01:37:47.723Z,0
2016-09-16T01:38:58.720Z,0
2016-09-16T01:40:09.728Z,0
2016-09-16T01:41:20.737Z,0
2016-09-16T01:42:31.734Z,0
2016-09-16T01:43:42.736Z,0
2016-09-16T01:44:53.739Z,0
2016-09-16T01:46:04.749Z,0
2016-09-16T01:47:15.751Z,0
2016-09-16T01:48:26.751Z,0
2016-09-16T01:49:37.771Z,0
2016-09-16T01:50:48.787Z,0
2016-09-16T01:51:59.795Z,0
2016-09-16T01:53:10.801Z,0
2016-09-16T01:54:21.813Z,0
2016-09-16T01:55:33.020Z,0
2016-09-16T01:56:44.030Z,0
2016-09-16T01:57:55.038Z,0
2016-09-16T01:59:06.047Z,0
2016-09-16T02:00:17.062Z,0
2016-09-16T02:01:28.064Z,0
2016-09-16T02:02:39.262Z,0
2016-09-16T02:03:50.477Z,0
2016-09-16T02:05:01.486Z,0
2016-09-16T02:06:12.497Z,0
2016-09-16T02:07:23.714Z,0
2016-09-16T02:08:34.914Z,0
2016-09-16T02:09:45.929Z,0
2016-09-16T02:10:56.929Z,0
2016-09-16T02:12:07.986Z,0
2016-09-16T02:13:18.993Z,0
2016-09-16T02:14:29.997Z,0
2016-09-16T02:15:41.003Z,0
2016-09-16T02:16:51.992Z,0
2016-09-16T02:18:02.994Z,0
2016-09-16T02:19:13.998Z,0
2016-09-16T02:20:25.005Z,0
2016-09-16T02:21:36.005Z,0
2016-09-16T02:22:47.007Z,0
2016-09-16T02:23:58.019Z,0
2016-09-16T02:25:09.024Z,0
2016-09-16T02:26:20.032Z,0
2016-09-16T02:27:31.060Z,0
2016-09-16T02:28:42.065Z,0
2016-09-16T02:29:53.076Z,0
2016-09-16T02:31:04.082Z,0
2016-09-16T02:32:15.082Z,0
2016-09-16T02:33:26.102Z,0
2016-09-16T02:34:37.122Z,0
2016-09-16T02:35:48.120Z,0
2016-09-16T02:36:59.117Z,0
2016-09-16T02:38:10.117Z,0
2016-09-16T02:39:21.121Z,0
2016-09-16T02:40:32.116Z,0
2016-09-16T02:41:43.113Z,0
2016-09-16T02:42:54.319Z,0
2016-09-16T02:44:05.325Z,0
2016-09-16T02:45:16.317Z,0
2016-09-16T02:46:27.324Z,0
2016-09-16T02:47:38.337Z,0
2016-09-16T02:48:49.341Z,0
2016-09-16T02:50:00.362Z,0
2016-09-16T02:51:11.361Z,0
2016-09-16T02:52:22.382Z,0
2016-09-16T02:53:33.384Z,0
2016-09-16T02:54:44.394Z,0
2016-09-16T02:55:55.398Z,0
2016-09-16T02:57:06.605Z,0
2016-09-16T02:58:17.607Z,0
2016-09-16T02:59:28.604Z,0
2016-09-16T03:00:39.603Z,0
2016-09-16T03:01:50.610Z,0
2016-09-16T03:03:01.620Z,0
2016-09-16T03:04:12.620Z,0
2016-09-16T03:05:23.644Z,0
2016-09-16T03:06:34.652Z,0
2016-09-16T03:07:45.654Z,0
2016-09-16T03:08:56.646Z,0
2016-09-16T03:10:07.654Z,0
2016-09-16T03:11:18.656Z,0
2016-09-16T03:12:29.857Z,0
2016-09-16T03:13:40.860Z,0
2016-09-16T03:14:51.866Z,0
2016-09-16T03:16:02.869Z,0
2016-09-16T03:17:13.878Z,0
2016-09-16T03:18:25.081Z,0
2016-09-16T03:19:36.095Z,0
2016-09-16T03:20:47.096Z,0
2016-09-16T03:21:58.108Z,0
2016-09-16T03:23:09.117Z,0
2016-09-16T03:24:20.112Z,0
2016-09-16T03:25:31.142Z,0
2016-09-16T03:26:42.140Z,0
2016-09-16T03:27:53.134Z,0
2016-09-16T03:29:04.152Z,0
2016-09-16T03:30:15.151Z,0
2016-09-16T03:31:26.345Z,0
2016-09-16T03:32:37.545Z,0
2016-09-16T03:33:48.557Z,0
2016-09-16T03:34:59.750Z,0
2016-09-16T03:36:10.763Z,0
2016-09-16T03:37:21.776Z,0
2016-09-16T03:38:32.792Z,0
2016-09-16T03:39:43.800Z,0
2016-09-16T03:40:55.003Z,0
2016-09-16T03:42:06.214Z,0
2016-09-16T03:43:17.421Z,0
2016-09-16T03:44:28.432Z,0
2016-09-16T03:45:39.439Z,0
2016-09-16T03:46:50.443Z,0
2016-09-16T03:48:01.474Z,0
2016-09-16T03:49:12.470Z,0
2016-09-16T03:50:23.680Z,0
2016-09-16T03:51:34.886Z,0
2016-09-16T03:52:45.892Z,0
2016-09-16T03:53:56.903Z,0
2016-09-16T03:55:07.925Z,0
2016-09-16T03:56:18.924Z,0
2016-09-16T03:57:30.150Z,0
2016-09-16T03:58:41.159Z,0
2016-09-16T03:59:52.165Z,0
2016-09-16T04:01:03.168Z,0
2016-09-16T04:02:14.170Z,0
2016-09-16T04:03:25.172Z,0
2016-09-16T04:04:36.179Z,0
2016-09-16T04:05:47.185Z,0
2016-09-16T04:06:58.192Z,0
2016-09-16T04:08:09.189Z,0
2016-09-16T04:09:20.202Z,0
2016-09-16T04:10:31.215Z,0
2016-09-16T04:11:42.232Z,0
2016-09-16T04:12:53.235Z,0
2016-09-16T04:14:04.241Z,0
2016-09-16T04:15:15.268Z,0
2016-09-16T04:16:26.272Z,0
2016-09-16T04:17:37.274Z,0
2016-09-16T04:18:48.276Z,0
2016-09-16T04:19:59.283Z,0
2016-09-16T04:21:10.290Z,0
2016-09-16T04:22:21.305Z,0
2016-09-16T04:23:32.352Z,0
2016-09-16T04:24:43.765Z,0
2016-09-16T04:25:54.762Z,0
2016-09-16T04:27:05.763Z,0
2016-09-16T04:28:16.962Z,0
2016-09-16T04:29:27.965Z,0
2016-09-16T04:30:38.973Z,0
2016-09-16T04:31:49.981Z,0
2016-09-16T04:33:00.992Z,0
2016-09-16T04:34:12.215Z,0
2016-09-16T04:35:23.219Z,0
2016-09-16T04:36:34.217Z,0
2016-09-16T04:37:45.235Z,0
2016-09-16T04:38:56.243Z,0
2016-09-16T04:40:07.247Z,0
2016-09-16T04:41:18.242Z,0
2016-09-16T04:42:29.253Z,0
2016-09-16T04:43:40.260Z,0
2016-09-16T04:44:51.264Z,0
2016-09-16T04:46:02.270Z,0
2016-09-16T04:47:13.280Z,0
2016-09-16T04:48:24.277Z,0
2016-09-16T04:49:35.275Z,0
2016-09-16T04:50:46.276Z,0
2016-09-16T04:51:57.275Z,0
2016-09-16T04:53:08.281Z,0
2016-09-16T04:54:19.296Z,0
2016-09-16T04:55:30.295Z,0
2016-09-16T04:56:41.290Z,0
2016-09-16T04:57:52.485Z,0
2016-09-16T04:59:03.505Z,0
2016-09-16T05:00:14.524Z,0
2016-09-16T05:01:25.533Z,0
2016-09-16T05:02:36.541Z,5
2016-09-16T05:03:47.546Z,5
2016-09-16T05:04:58.545Z,5
2016-09-16T05:06:09.543Z,5
2016-09-16T05:07:20.542Z,5
2016-09-16T05:08:31.550Z,5
2016-09-16T05:09:42.757Z,5
2016-09-16T05:10:53.761Z,5
2016-09-16T05:12:04.763Z,10
2016-09-16T05:13:15.824Z,10
2016-09-16T05:14:26.826Z,10
2016-09-16T05:15:37.824Z,10
2016-09-16T05:16:48.819Z,10
2016-09-16T05:17:59.815Z,15
2016-09-16T05:19:10.822Z,15
2016-09-16T05:20:21.820Z,15
2016-09-16T05:21:32.817Z,20
2016-09-16T05:22:43.819Z,20
2016-09-16T05:23:54.821Z,25
2016-09-16T05:25:05.838Z,25
2016-09-16T05:26:16.839Z,25
2016-09-16T05:27:27.848Z,30
2016-09-16T05:28:38.838Z,30
2016-09-16T05:29:49.834Z,35
2016-09-16T05:31:00.840Z,35
2016-09-16T05:32:11.847Z,35
2016-09-16T05:33:23.051Z,40
2016-09-16T05:34:34.090Z,40
2016-09-16T05:35:45.089Z,40
2016-09-16T05:36:56.298Z,40
2016-09-16T05:38:07.314Z,40
2016-09-16T05:39:18.309Z,45
2016-09-16T05:40:29.313Z,45
2016-09-16T05:41:40.320Z,45
2016-09-16T05:42:51.319Z,45
2016-09-16T05:44:02.322Z,50
2016-09-16T05:45:13.326Z,50
2016-09-16T05:46:24.539Z,55
2016-09-16T05:47:35.547Z,55
2016-09-16T05:48:46.541Z,60
2016-09-16T05:49:57.542Z,65
2016-09-16T05:51:08.542Z,70
2016-09-16T05:52:19.738Z,70
2016-09-16T05:53:30.750Z,75
2016-09-16T05:54:41.757Z,75
2016-09-16T05:55:53.159Z,75
2016-09-16T05:57:04.380Z,75
2016-09-16T05:58:15.395Z,80
2016-09-16T05:59:26.411Z,80
2016-09-16T06:00:37.409Z,80
2016-09-16T06:01:48.414Z,85
2016-09-16T06:02:59.413Z,85
2016-09-16T06:04:10.619Z,85
2016-09-16T06:05:21.614Z,90
2016-09-16T06:06:32.626Z,90
2016-09-16T06:07:43.633Z,95
2016-09-16T06:08:55.034Z,95
2016-09-16T06:10:06.033Z,110
2016-09-16T06:11:17.238Z,110
2016-09-16T06:12:28.231Z,115
2016-09-16T06:13:39.296Z,120
2016-09-16T06:14:50.704Z,125
2016-09-16T06:16:01.712Z,140
2016-09-16T06:17:12.717Z,150
2016-09-16T06:18:23.715Z,160
2016-09-16T06:19:34.909Z,170
2016-09-16T06:20:45.912Z,170
2016-09-16T06:21:56.926Z,180
2016-09-16T06:23:07.941Z,180
2016-09-16T06:24:18.950Z,190
2016-09-16T06:25:29.958Z,230
2016-09-16T06:26:41.160Z,240
2016-09-16T06:27:52.158Z,300
2016-09-16T06:29:03.175Z,275
2016-09-16T06:30:14.178Z,275
2016-09-16T06:31:25.388Z,265
2016-09-16T06:32:36.403Z,260
2016-09-16T06:33:47.405Z,270
2016-09-16T06:34:58.408Z,300
2016-09-16T06:36:09.404Z,330
2016-09-16T06:37:20.411Z,375
2016-09-16T06:38:31.413Z,455
2016-09-16T06:39:42.606Z,600
2016-09-16T06:40:53.615Z,770
2016-09-16T06:42:04.627Z,820
2016-09-16T06:43:15.631Z,940
2016-09-16T06:44:26.633Z,725
2016-09-16T06:45:37.650Z,1165
2016-09-16T06:46:48.661Z,1090
2016-09-16T06:47:59.662Z,510
2016-09-16T06:49:10.663Z,570
2016-09-16T06:50:21.670Z,575
2016-09-16T06:51:33.100Z,585
2016-09-16T06:52:44.089Z,570
2016-09-16T06:53:55.091Z,405
2016-09-16T06:55:06.099Z,330
2016-09-16T06:56:17.107Z,280
2016-09-16T06:57:28.105Z,210
2016-09-16T06:58:39.123Z,175
2016-09-16T06:59:50.133Z,175
2016-09-16T07:01:01.149Z,190
2016-09-16T07:02:12.361Z,200
2016-09-16T07:03:23.371Z,195
2016-09-16T07:04:34.582Z,190
2016-09-16T07:05:45.586Z,155
2016-09-16T07:06:56.592Z,150
2016-09-16T07:08:07.599Z,160
2016-09-16T07:09:18.809Z,170
2016-09-16T07:10:29.834Z,180
2016-09-16T07:11:40.859Z,195
2016-09-16T07:12:51.872Z,180
2016-09-16T07:14:02.875Z,150
2016-09-16T07:15:14.076Z,150
2016-09-16T07:16:25.083Z,160
2016-09-16T07:17:36.087Z,160
2016-09-16T07:18:47.105Z,175
2016-09-16T07:19:58.122Z,180
2016-09-16T07:21:09.318Z,170
2016-09-16T07:22:20.521Z,175
2016-09-16T07:23:31.526Z,195
2016-09-16T07:24:42.532Z,230
2016-09-16T07:25:53.539Z,240
2016-09-16T07:27:04.551Z,215
2016-09-16T07:28:15.765Z,215
2016-09-16T07:29:26.775Z,210
2016-09-16T07:30:37.784Z,250
2016-09-16T07:31:48.790Z,330
2016-09-16T07:32:59.803Z,485
2016-09-16T07:34:10.808Z,495
2016-09-16T07:35:21.821Z,905
2016-09-16T07:36:32.824Z,785
2016-09-16T07:37:43.826Z,650
2016-09-16T07:38:54.843Z,780
2016-09-16T07:40:05.850Z,775
2016-09-16T07:41:16.852Z,1040
2016-09-16T07:42:27.856Z,1685
2016-09-16T07:43:38.858Z,1590
2016-09-16T07:44:49.877Z,1615
2016-09-16T07:46:00.880Z,1285
2016-09-16T07:47:11.890Z,1125
2016-09-16T07:48:22.907Z,1240
2016-09-16T07:49:33.920Z,790
2016-09-16T07:50:45.131Z,1375
2016-09-16T07:51:56.140Z,1470
2016-09-16T07:53:07.140Z,1450
2016-09-16T07:54:18.160Z,1490
2016-09-16T07:55:29.180Z,1495
2016-09-16T07:56:40.186Z,1495
2016-09-16T07:57:51.198Z,1345
2016-09-16T07:59:02.214Z,1245
2016-09-16T08:00:13.228Z,1200
2016-09-16T08:01:24.440Z,690
2016-09-16T08:02:35.456Z,1105
2016-09-16T08:03:46.461Z,825
2016-09-16T08:04:57.472Z,540
2016-09-16T08:06:08.488Z,740
2016-09-16T08:07:19.501Z,665
2016-09-16T08:08:30.509Z,415
2016-09-16T08:09:41.529Z,315
2016-09-16T08:10:52.553Z,285
2016-09-16T08:12:03.755Z,240
2016-09-16T08:13:14.973Z,520
2016-09-16T08:14:26.044Z,400
2016-09-16T08:15:37.043Z,360
2016-09-16T08:16:48.053Z,350
2016-09-16T08:17:59.069Z,350
2016-09-16T08:19:10.083Z,400
2016-09-16T08:20:21.293Z,410
2016-09-16T08:21:32.503Z,405
2016-09-16T08:22:43.511Z,440
2016-09-16T08:23:54.516Z,455
2016-09-16T08:25:05.732Z,510
2016-09-16T08:26:16.739Z,520
2016-09-16T08:27:27.748Z,580
2016-09-16T08:28:38.760Z,485
2016-09-16T08:29:49.773Z,545
2016-09-16T08:31:00.981Z,475
2016-09-16T08:32:12.185Z,470
2016-09-16T08:33:23.202Z,425
2016-09-16T08:34:34.212Z,470
2016-09-16T08:35:45.226Z,475
2016-09-16T08:36:56.234Z,740
2016-09-16T08:38:07.436Z,780
2016-09-16T08:39:18.452Z,775
2016-09-16T08:40:29.462Z,520
2016-09-16T08:41:40.470Z,460
2016-09-16T08:42:51.473Z,425
2016-09-16T08:44:02.478Z,415
2016-09-16T08:45:13.493Z,445
2016-09-16T08:46:24.500Z,850
2016-09-16T08:47:35.499Z,830
2016-09-16T08:48:46.697Z,745
2016-09-16T08:49:57.710Z,650
2016-09-16T08:51:08.720Z,770
2016-09-16T08:52:19.733Z,710
2016-09-16T08:53:30.960Z,500
2016-09-16T08:54:41.961Z,600
2016-09-16T08:55:52.978Z,885
2016-09-16T08:57:03.983Z,465
2016-09-16T08:58:14.991Z,435
2016-09-16T08:59:26.018Z,410
2016-09-16T09:00:37.028Z,495
2016-09-16T09:01:48.030Z,415
2016-09-16T09:02:59.033Z,445
2016-09-16T09:04:10.035Z,445
2016-09-16T09:05:21.048Z,365
2016-09-16T09:06:32.060Z,285
2016-09-16T09:07:43.066Z,250
2016-09-16T09:08:54.276Z,260
2016-09-16T09:10:05.298Z,310
2016-09-16T09:11:16.304Z,335
2016-09-16T09:12:27.313Z,320
2016-09-16T09:13:38.318Z,305
2016-09-16T09:14:49.375Z,315
2016-09-16T09:16:00.574Z,350
2016-09-16T09:17:11.586Z,355
2016-09-16T09:18:22.804Z,345
2016-09-16T09:19:34.023Z,345
2016-09-16T09:20:45.033Z,385
2016-09-16T09:21:56.042Z,575
2016-09-16T09:23:07.045Z,1710
2016-09-16T09:24:18.062Z,965
2016-09-16T09:25:29.072Z,965
2016-09-16T09:26:40.076Z,790
2016-09-16T09:27:51.083Z,735
2016-09-16T09:29:02.095Z,725
2016-09-16T09:30:13.101Z,785
2016-09-16T09:31:24.113Z,1030
2016-09-16T09:32:35.124Z,2010
2016-09-16T09:33:46.131Z,2585
2016-09-16T09:34:57.136Z,2455
2016-09-16T09:36:08.150Z,2520
2016-09-16T09:37:19.357Z,545
2016-09-16T09:38:30.376Z,445
2016-09-16T09:39:41.391Z,460
2016-09-16T09:40:52.807Z,490
2016-09-16T09:42:03.836Z,955
2016-09-16T09:43:14.848Z,670
2016-09-16T09:44:25.862Z,2710
2016-09-16T09:45:36.876Z,2670
2016-09-16T09:46:47.894Z,2775
2016-09-16T09:47:58.920Z,2800
2016-09-16T09:49:09.933Z,2615
2016-09-16T09:50:20.942Z,2675
2016-09-16T09:51:31.961Z,2470
2016-09-16T09:52:42.978Z,2490
2016-09-16T09:53:53.988Z,2545
2016-09-16T09:55:05.214Z,705
2016-09-16T09:56:16.229Z,1325
2016-09-16T09:57:27.245Z,2240
2016-09-16T09:58:38.264Z,2600
2016-09-16T09:59:49.284Z,2595
2016-09-16T10:01:00.308Z,2625
2016-09-16T10:02:11.325Z,2455
2016-09-16T10:03:22.541Z,2335
2016-09-16T10:04:33.565Z,2525
2016-09-16T10:05:44.589Z,665
2016-09-16T10:06:55.606Z,610
2016-09-16T10:08:06.844Z,2020
2016-09-16T10:09:17.873Z,2435
2016-09-16T10:10:28.890Z,630
2016-09-16T10:11:39.905Z,665
2016-09-16T10:12:50.926Z,2355
2016-09-16T10:14:01.941Z,2480
2016-09-16T10:15:13.015Z,2630
2016-09-16T10:16:24.221Z,2305
2016-09-16T10:17:35.231Z,2510
2016-09-16T10:18:46.248Z,2570
2016-09-16T10:19:57.466Z,2395
2016-09-16T10:21:08.888Z,420
2016-09-16T10:22:19.904Z,425
2016-09-16T10:23:30.925Z,660
2016-09-16T10:24:41.963Z,2560
2016-09-16T10:25:53.189Z,2365
2016-09-16T10:27:04.215Z,640
2016-09-16T10:28:15.238Z,2390
2016-09-16T10:29:26.296Z,2475
2016-09-16T10:30:37.315Z,2520
2016-09-16T10:31:48.539Z,2355
2016-09-16T10:32:59.562Z,2375
2016-09-16T10:34:10.583Z,1910
2016-09-16T10:35:21.605Z,2320
2016-09-16T10:36:32.628Z,1110
2016-09-16T10:37:43.645Z,905
2016-09-16T10:38:54.865Z,2285
2016-09-16T10:40:05.884Z,2285
2016-09-16T10:41:17.104Z,2415
2016-09-16T10:42:28.331Z,2320
2016-09-16T10:43:39.352Z,2185
2016-09-16T10:44:50.366Z,2270
2016-09-16T10:46:01.389Z,570
2016-09-16T10:47:12.426Z,1330
2016-09-16T10:48:23.441Z,2130
2016-09-16T10:49:34.657Z,2145
2016-09-16T10:50:45.683Z,2165
2016-09-16T10:51:56.704Z,500
2016-09-16T10:53:07.722Z,2050
2016-09-16T10:54:18.744Z,1920
2016-09-16T10:55:29.955Z,1075
2016-09-16T10:56:40.980Z,785
2016-09-16T10:57:51.994Z,1620
2016-09-16T10:59:03.213Z,2035
2016-09-16T11:00:14.234Z,2090
2016-09-16T11:01:25.255Z,1865
2016-09-16T11:02:36.283Z,2115
2016-09-16T11:03:47.295Z,2045
2016-09-16T11:04:58.325Z,1880
2016-09-16T11:06:09.342Z,1405
2016-09-16T11:07:20.372Z,1020
2016-09-16T11:08:31.398Z,640
2016-09-16T11:09:42.418Z,515
2016-09-16T11:10:53.441Z,465
2016-09-16T11:12:04.467Z,560
2016-09-16T11:13:15.485Z,735
2016-09-16T11:14:26.503Z,745
2016-09-16T11:15:37.574Z,1015
2016-09-16T11:16:48.593Z,860
2016-09-16T11:17:59.616Z,600
2016-09-16T11:19:10.834Z,505
2016-09-16T11:20:21.859Z,590
2016-09-16T11:21:32.882Z,815
2016-09-16T11:22:43.902Z,845
2016-09-16T11:23:54.915Z,1325
2016-09-16T11:25:05.937Z,1455
2016-09-16T11:26:16.946Z,1125
2016-09-16T11:27:27.961Z,670
2016-09-16T11:28:39.174Z,610
2016-09-16T11:29:50.187Z,555
2016-09-16T11:31:01.198Z,565
2016-09-16T11:32:12.215Z,545
2016-09-16T11:33:23.441Z,505
2016-09-16T11:34:34.455Z,470
2016-09-16T11:35:45.473Z,455
2016-09-16T11:36:56.492Z,440
2016-09-16T11:38:07.503Z,430
2016-09-16T11:39:18.521Z,425
2016-09-16T11:40:29.525Z,430
2016-09-16T11:41:40.541Z,440
2016-09-16T11:42:51.561Z,460
2016-09-16T11:44:02.567Z,500
2016-09-16T11:45:13.582Z,510
2016-09-16T11:46:24.596Z,555
2016-09-16T11:47:35.605Z,635
2016-09-16T11:48:46.628Z,910
2016-09-16T11:49:57.636Z,1290
2016-09-16T11:51:08.804Z,1330
2016-09-16T11:52:19.829Z,1350
2016-09-16T11:53:30.852Z,1515
2016-09-16T11:54:42.065Z,715
2016-09-16T11:55:53.081Z,665
2016-09-16T11:57:04.097Z,660
2016-09-16T11:58:15.121Z,725
2016-09-16T11:59:26.323Z,675
2016-09-16T12:00:37.334Z,1135
2016-09-16T12:01:48.337Z,1090
2016-09-16T12:02:59.545Z,1230
2016-09-16T12:04:10.563Z,1255
2016-09-16T12:05:21.577Z,1220
2016-09-16T12:06:32.600Z,1260
2016-09-16T12:07:43.611Z,1360
2016-09-16T12:08:54.616Z,1320
2016-09-16T12:10:05.643Z,1205
2016-09-16T12:11:16.852Z,1315
2016-09-16T12:12:27.878Z,1310
2016-09-16T12:13:38.901Z,1275
2016-09-16T12:14:49.927Z,1245
2016-09-16T12:16:01.197Z,1275
2016-09-16T12:17:12.209Z,990
2016-09-16T12:18:23.228Z,530
2016-09-16T12:19:34.247Z,565
2016-09-16T12:20:45.475Z,530
2016-09-16T12:21:56.493Z,530
2016-09-16T12:23:07.522Z,530
2016-09-16T12:24:18.553Z,930
2016-09-16T12:25:29.578Z,540
2016-09-16T12:26:40.593Z,905
2016-09-16T12:27:51.811Z,520
2016-09-16T12:29:02.841Z,405
2016-09-16T12:30:13.847Z,680
2016-09-16T12:31:25.290Z,475
2016-09-16T12:32:36.318Z,370
2016-09-16T12:33:47.332Z,340
2016-09-16T12:34:58.343Z,340
2016-09-16T12:36:09.546Z,310
2016-09-16T12:37:20.558Z,300
2016-09-16T12:38:31.577Z,355
2016-09-16T12:39:42.595Z,415
2016-09-16T12:40:53.607Z,430
2016-09-16T12:42:04.829Z,460
2016-09-16T12:43:16.047Z,405
2016-09-16T12:44:27.063Z,360
2016-09-16T12:45:38.082Z,340
2016-09-16T12:46:49.094Z,325
2016-09-16T12:48:00.309Z,310
2016-09-16T12:49:11.327Z,315
2016-09-16T12:50:22.351Z,325
2016-09-16T12:51:33.566Z,345
2016-09-16T12:52:44.578Z,380
2016-09-16T12:53:55.579Z,390
2016-09-16T12:55:06.592Z,425
2016-09-16T12:56:17.797Z,390
2016-09-16T12:57:29.021Z,340
2016-09-16T12:58:40.025Z,310
2016-09-16T12:59:51.041Z,295
2016-09-16T13:01:02.053Z,290
2016-09-16T13:02:13.075Z,310
2016-09-16T13:03:24.092Z,325
2016-09-16T13:04:35.099Z,330
2016-09-16T13:05:46.122Z,335
2016-09-16T13:06:57.231Z,345
2016-09-16T13:08:08.246Z,370
2016-09-16T13:09:19.435Z,380
2016-09-16T13:10:30.647Z,370
2016-09-16T13:11:41.872Z,370
2016-09-16T13:12:52.876Z,375
2016-09-16T13:14:04.091Z,375
2016-09-16T13:15:15.099Z,360
2016-09-16T13:16:26.154Z,350
2016-09-16T13:17:37.173Z,370
2016-09-16T13:18:48.186Z,405
2016-09-16T13:19:59.193Z,440
2016-09-16T13:21:10.223Z,440
2016-09-16T13:22:21.232Z,415
2016-09-16T13:23:32.234Z,405
2016-09-16T13:24:43.249Z,385
2016-09-16T13:25:54.258Z,380
2016-09-16T13:27:05.463Z,375
2016-09-16T13:28:16.673Z,370
2016-09-16T13:29:27.681Z,365
2016-09-16T13:30:38.697Z,365
2016-09-16T13:31:49.704Z,365
2016-09-16T13:33:00.713Z,370
2016-09-16T13:34:11.719Z,380
2016-09-16T13:35:23.133Z,380
2016-09-16T13:36:34.134Z,395
2016-09-16T13:37:45.141Z,385
2016-09-16T13:38:56.162Z,395
2016-09-16T13:40:07.374Z,385
2016-09-16T13:41:18.392Z,385
2016-09-16T13:42:29.397Z,380
2016-09-16T13:43:40.405Z,385
2016-09-16T13:44:51.621Z,390
2016-09-16T13:46:02.627Z,365
2016-09-16T13:47:13.644Z,355
2016-09-16T13:48:24.660Z,350
2016-09-16T13:49:35.665Z,350
2016-09-16T13:50:46.682Z,355
2016-09-16T13:51:57.903Z,350
2016-09-16T13:53:08.909Z,350
2016-09-16T13:54:19.923Z,360
2016-09-16T13:55:30.931Z,350
2016-09-16T13:56:41.933Z,345
2016-09-16T13:57:52.941Z,340
2016-09-16T13:59:03.948Z,325
2016-09-16T14:00:14.967Z,320
2016-09-16T14:01:26.186Z,320
2016-09-16T14:02:37.196Z,315
2016-09-16T14:03:48.201Z,290
2016-09-16T14:04:59.215Z,285
2016-09-16T14:06:10.222Z,285
2016-09-16T14:07:21.234Z,285
2016-09-16T14:08:32.254Z,290
2016-09-16T14:09:43.261Z,295
2016-09-16T14:10:54.278Z,305
2016-09-16T14:12:05.486Z,310
2016-09-16T14:13:16.488Z,305
2016-09-16T14:14:27.511Z,310
2016-09-16T14:15:38.512Z,315
2016-09-16T14:16:49.568Z,320
2016-09-16T14:18:00.583Z,325
2016-09-16T14:19:11.607Z,300
2016-09-16T14:20:22.610Z,285
2016-09-16T14:21:33.621Z,275
2016-09-16T14:22:44.845Z,270
2016-09-16T14:23:56.058Z,260
2016-09-16T14:25:07.074Z,255
2016-09-16T14:26:18.083Z,245
2016-09-16T14:27:29.095Z,235
2016-09-16T14:28:40.100Z,225
2016-09-16T14:29:51.113Z,220
2016-09-16T14:31:02.322Z,210
2016-09-16T14:32:13.329Z,205
2016-09-16T14:33:24.350Z,195
2016-09-16T14:34:35.356Z,185
2016-09-16T14:35:46.575Z,180
2016-09-16T14:36:57.590Z,175
2016-09-16T14:38:08.802Z,170
2016-09-16T14:39:19.826Z,165
2016-09-16T14:40:30.838Z,170
2016-09-16T14:41:41.859Z,165
2016-09-16T14:42:52.863Z,165
2016-09-16T14:44:03.877Z,165
2016-09-16T14:45:15.087Z,165
2016-09-16T14:46:26.092Z,170
2016-09-16T14:47:37.086Z,170
2016-09-16T14:48:48.092Z,175
2016-09-16T14:49:59.111Z,175
2016-09-16T14:51:10.314Z,175
2016-09-16T14:52:21.726Z,180
2016-09-16T14:53:32.742Z,180
2016-09-16T14:54:43.747Z,180
2016-09-16T14:55:54.756Z,180
2016-09-16T14:57:05.763Z,180
2016-09-16T14:58:16.768Z,180
2016-09-16T14:59:27.778Z,180
2016-09-16T15:00:38.787Z,180
2016-09-16T15:01:49.797Z,175
2016-09-16T15:03:00.815Z,175
2016-09-16T15:04:11.817Z,175
2016-09-16T15:05:22.815Z,170
2016-09-16T15:06:34.027Z,170
2016-09-16T15:07:45.045Z,175
2016-09-16T15:08:56.253Z,170
2016-09-16T15:10:07.252Z,175
2016-09-16T15:11:18.253Z,170
2016-09-16T15:12:29.261Z,170
2016-09-16T15:13:40.282Z,170
2016-09-16T15:14:51.281Z,170
2016-09-16T15:16:02.277Z,170
2016-09-16T15:17:13.339Z,170
2016-09-16T15:18:24.351Z,170
2016-09-16T15:19:35.355Z,165
2016-09-16T15:20:46.352Z,165
2016-09-16T15:21:57.357Z,160
2016-09-16T15:23:08.567Z,160
2016-09-16T15:24:19.565Z,155
2016-09-16T15:25:30.571Z,150
2016-09-16T15:26:41.588Z,140
2016-09-16T15:27:52.801Z,145
2016-09-16T15:29:03.814Z,140
2016-09-16T15:30:14.823Z,135
2016-09-16T15:31:25.828Z,130
2016-09-16T15:32:37.037Z,130
2016-09-16T15:33:48.047Z,125
2016-09-16T15:34:59.055Z,125
2016-09-16T15:36:10.063Z,130
2016-09-16T15:37:21.076Z,130
2016-09-16T15:38:32.089Z,135
2016-09-16T15:39:43.100Z,140
2016-09-16T15:40:54.299Z,145
2016-09-16T15:42:05.322Z,145
2016-09-16T15:43:16.365Z,145
2016-09-16T15:44:27.373Z,150
2016-09-16T15:45:38.382Z,150
2016-09-16T15:46:49.391Z,150
2016-09-16T15:48:00.396Z,150
2016-09-16T15:49:11.400Z,150
2016-09-16T15:50:22.412Z,145
2016-09-16T15:51:33.425Z,145
2016-09-16T15:52:44.431Z,145
2016-09-16T15:53:55.443Z,140
2016-09-16T15:55:06.654Z,145
2016-09-16T15:56:17.652Z,140
2016-09-16T15:57:28.862Z,140
2016-09-16T15:58:39.890Z,140
2016-09-16T15:59:50.905Z,135
2016-09-16T16:01:01.916Z,135
2016-09-16T16:02:12.921Z,135
2016-09-16T16:03:23.948Z,130
2016-09-16T16:04:34.965Z,130
2016-09-16T16:05:45.978Z,125
2016-09-16T16:06:56.994Z,125
2016-09-16T16:08:07.997Z,120
2016-09-16T16:09:19.034Z,120
2016-09-16T16:10:30.038Z,115
2016-09-16T16:11:41.050Z,115
2016-09-16T16:12:52.067Z,110
2016-09-16T16:14:03.272Z,110
2016-09-16T16:15:14.283Z,105
2016-09-16T16:16:25.292Z,105
2016-09-16T16:17:36.350Z,105
2016-09-16T16:18:47.357Z,105
2016-09-16T16:19:58.362Z,100
2016-09-16T16:21:09.367Z,95
2016-09-16T16:22:20.370Z,95
2016-09-16T16:23:31.374Z,90
2016-09-16T16:24:42.384Z,85
2016-09-16T16:25:53.391Z,85
2016-09-16T16:27:04.604Z,80
2016-09-16T16:28:15.613Z,80
2016-09-16T16:29:26.607Z,75
2016-09-16T16:30:37.617Z,75
2016-09-16T16:31:48.625Z,75
2016-09-16T16:32:59.642Z,75
2016-09-16T16:34:10.652Z,75
2016-09-16T16:35:21.662Z,75
2016-09-16T16:36:32.667Z,75
2016-09-16T16:37:43.684Z,70